Terminal Aerodrome Forecast
Issued by NWS

Current Version | Previous Version | Graphics & Text | Print | Product List | Glossary On
Versions: 1 2 3 4 5 6 7 8 9 10 11 12 13 14 15 16 17 18 19 20 21 22 23
923
FTUS41 KILN 240045 AAA
TAFLCK
TAF AMD
KLCK 240045Z 2401/2424 23004KT P6SM -RA BKN005 BKN023 OVC100
     FM240300 26006KT P6SM VCSH OVC025
     FM240600 31006KT P6SM BKN045
     FM241400 28010KT P6SM SCT100=

USA.gov is the U.S. government's official web portal to all federal, state and local government web resources and services.